sensor_id;sensor_type;location;lat;lon;timestamp;pressure;altitude;pressure_sealevel;temperature;humidity
65614;BME280;52283;49.292;10.572;2023-02-28T00:01:13;97243.50;;;-3.46;100.00
65614;BME280;52283;49.292;10.572;2023-02-28T00:03:40;97245.06;;;-3.30;100.00
65614;BME280;52283;49.292;10.572;2023-02-28T00:06:08;97237.63;;;-3.37;100.00
65614;BME280;52283;49.292;10.572;2023-02-28T00:08:36;97242.72;;;-3.39;100.00
65614;BME280;52283;49.292;10.572;2023-02-28T00:11:03;97241.53;;;-3.34;100.00
65614;BME280;52283;49.292;10.572;2023-02-28T00:13:30;97242.72;;;-3.46;100.00
65614;BME280;52283;49.292;10.572;2023-02-28T00:16:00;97240.38;;;-3.48;100.00
65614;BME280;52283;49.292;10.572;2023-02-28T00:18:27;97242.72;;;-3.50;100.00
65614;BME280;52283;49.292;10.572;2023-02-28T00:20:53;97241.16;;;-3.51;100.00
65614;BME280;52283;49.292;10.572;2023-02-28T00:23:20;97243.88;;;-3.58;100.00
65614;BME280;52283;49.292;10.572;2023-02-28T00:25:48;97239.22;;;-3.68;100.00
65614;BME280;52283;49.292;10.572;2023-02-28T00:28:14;97240.00;;;-3.50;100.00
65614;BME280;52283;49.292;10.572;2023-02-28T00:30:41;97237.28;;;-3.50;100.00
65614;BME280;52283;49.292;10.572;2023-02-28T00:33:07;97232.97;;;-3.44;100.00
65614;BME280;52283;49.292;10.572;2023-02-28T00:35:34;97233.38;;;-3.49;100.00
65614;BME280;52283;49.292;10.572;2023-02-28T00:38:01;97236.47;;;-3.40;100.00
65614;BME280;52283;49.292;10.572;2023-02-28T00:40:27;97236.09;;;-3.49;100.00
65614;BME280;52283;49.292;10.572;2023-02-28T00:42:55;97238.06;;;-3.49;100.00
65614;BME280;52283;49.292;10.572;2023-02-28T00:45:22;97238.81;;;-3.45;100.00
65614;BME280;52283;49.292;10.572;2023-02-28T00:47:48;97233.38;;;-3.49;100.00
65614;BME280;52283;49.292;10.572;2023-02-28T00:50:16;97241.56;;;-3.49;100.00
65614;BME280;52283;49.292;10.572;2023-02-28T00:52:42;97227.88;;;-3.45;100.00
65614;BME280;52283;49.292;10.572;2023-02-28T00:55:09;97236.47;;;-3.57;100.00
65614;BME280;52283;49.292;10.572;2023-02-28T00:57:36;97239.97;;;-3.39;100.00
65614;BME280;52283;49.292;10.572;2023-02-28T01:00:05;97229.84;;;-3.42;100.00
65614;BME280;52283;49.292;10.572;2023-02-28T01:02:32;97228.28;;;-3.32;100.00
65614;BME280;52283;49.292;10.572;2023-02-28T01:04:58;97232.97;;;-3.33;100.00
65614;BME280;52283;49.292;10.572;2023-02-28T01:07:25;97223.22;;;-3.52;100.00
65614;BME280;52283;49.292;10.572;2023-02-28T01:09:51;97215.81;;;-3.51;100.00
65614;BME280;52283;49.292;10.572;2023-02-28T01:12:17;97218.53;;;-3.48;100.00
65614;BME280;52283;49.292;10.572;2023-02-28T01:14:44;97219.69;;;-3.45;100.00
65614;BME280;52283;49.292;10.572;2023-02-28T01:17:12;97227.50;;;-3.44;100.00
65614;BME280;52283;49.292;10.572;2023-02-28T01:19:38;97224.38;;;-3.56;100.00
65614;BME280;52283;49.292;10.572;2023-02-28T01:22:05;97226.31;;;-3.57;100.00
65614;BME280;52283;49.292;10.572;2023-02-28T01:24:32;97217.38;;;-3.79;100.00
65614;BME280;52283;49.292;10.572;2023-02-28T01:26:58;97222.03;;;-3.58;100.00
65614;BME280;52283;49.292;10.572;2023-02-28T01:29:25;97227.50;;;-3.51;100.00
65614;BME280;52283;49.292;10.572;2023-02-28T01:31:51;97222.41;;;-3.56;100.00
65614;BME280;52283;49.292;10.572;2023-02-28T01:34:19;97217.75;;;-3.66;100.00
65614;BME280;52283;49.292;10.572;2023-02-28T01:36:46;97229.84;;;-3.49;100.00
65614;BME280;52283;49.292;10.572;2023-02-28T01:39:12;97222.41;;;-3.45;100.00
65614;BME280;52283;49.292;10.572;2023-02-28T01:41:39;97220.88;;;-3.71;100.00
65614;BME280;52283;49.292;10.572;2023-02-28T01:44:53;97221.28;;;-3.51;100.00
65614;BME280;52283;49.292;10.572;2023-02-28T01:46:53;97227.09;;;-3.56;100.00
65614;BME280;52283;49.292;10.572;2023-02-28T01:49:21;97216.97;;;-3.66;100.00
65614;BME280;52283;49.292;10.572;2023-02-28T01:51:49;97215.41;;;-3.57;100.00
65614;BME280;52283;49.292;10.572;2023-02-28T01:54:18;97212.31;;;-3.70;100.00
65614;BME280;52283;49.292;10.572;2023-02-28T01:56:50;97214.25;;;-3.95;100.00
65614;BME280;52283;49.292;10.572;2023-02-28T01:59:22;97211.91;;;-3.79;100.00
65614;BME280;52283;49.292;10.572;2023-02-28T02:01:51;97211.53;;;-3.84;100.00
65614;BME280;52283;49.292;10.572;2023-02-28T02:04:17;97206.06;;;-3.81;100.00
65614;BME280;52283;49.292;10.572;2023-02-28T02:06:46;97207.63;;;-3.73;100.00
65614;BME280;52283;49.292;10.572;2023-02-28T02:09:13;97205.66;;;-3.83;100.00
65614;BME280;52283;49.292;10.572;2023-02-28T02:11:42;97204.13;;;-3.94;100.00
65614;BME280;52283;49.292;10.572;2023-02-28T02:14:32;97195.53;;;-4.04;100.00
65614;BME280;52283;49.292;10.572;2023-02-28T02:17:14;97202.94;;;-3.83;100.00
65614;BME280;52283;49.292;10.572;2023-02-28T02:23:10;97198.66;;;-3.94;100.00
65614;BME280;52283;49.292;10.572;2023-02-28T02:25:48;97195.16;;;-3.95;100.00
65614;BME280;52283;49.292;10.572;2023-02-28T02:31:22;97193.19;;;-3.84;100.00
65614;BME280;52283;49.292;10.572;2023-02-28T02:34:32;97193.19;;;-4.12;100.00
65614;BME280;52283;49.292;10.572;2023-02-28T02:37:09;97190.47;;;-3.87;100.00
65614;BME280;52283;49.292;10.572;2023-02-28T02:39:47;97189.69;;;-3.91;100.00
65614;BME280;52283;49.292;10.572;2023-02-28T02:42:18;97187.34;;;-4.07;100.00
65614;BME280;52283;49.292;10.572;2023-02-28T02:44:49;97181.06;;;-4.25;100.00
65614;BME280;52283;49.292;10.572;2023-02-28T02:47:20;97190.84;;;-4.14;100.00
65614;BME280;52283;49.292;10.572;2023-02-28T02:49:54;97189.66;;;-3.99;100.00
65614;BME280;52283;49.292;10.572;2023-02-28T02:52:26;97191.63;;;-4.13;100.00
65614;BME280;52283;49.292;10.572;2023-02-28T02:54:57;97191.63;;;-3.95;100.00
65614;BME280;52283;49.292;10.572;2023-02-28T02:57:29;97190.47;;;-3.91;100.00
65614;BME280;52283;49.292;10.572;2023-02-28T02:59:57;97181.88;;;-4.11;100.00
65614;BME280;52283;49.292;10.572;2023-02-28T03:02:24;97193.19;;;-4.05;100.00
65614;BME280;52283;49.292;10.572;2023-02-28T03:04:58;97194.34;;;-4.27;100.00
65614;BME280;52283;49.292;10.572;2023-02-28T03:07:26;97205.22;;;-4.45;100.00
65614;BME280;52283;49.292;10.572;2023-02-28T03:09:54;97198.19;;;-4.43;100.00
65614;BME280;52283;49.292;10.572;2023-02-28T03:12:23;97198.22;;;-4.21;100.00
65614;BME280;52283;49.292;10.572;2023-02-28T03:14:56;97198.25;;;-4.11;100.00
65614;BME280;52283;49.292;10.572;2023-02-28T03:17:53;97191.22;;;-4.05;100.00
65614;BME280;52283;49.292;10.572;2023-02-28T03:20:34;97193.94;;;-3.97;100.00
65614;BME280;52283;49.292;10.572;2023-02-28T03:23:10;97185.75;;;-4.22;100.00
65614;BME280;52283;49.292;10.572;2023-02-28T03:25:50;97194.34;;;-4.06;100.00
65614;BME280;52283;49.292;10.572;2023-02-28T03:28:23;97193.19;;;-3.87;100.00
65614;BME280;52283;49.292;10.572;2023-02-28T03:30:58;97188.50;;;-4.12;100.00
65614;BME280;52283;49.292;10.572;2023-02-28T03:33:28;97190.03;;;-4.32;100.00
65614;BME280;52283;49.292;10.572;2023-02-28T03:35:59;97188.91;;;-4.10;100.00
65614;BME280;52283;49.292;10.572;2023-02-28T03:38:31;97183.81;;;-4.18;100.00
65614;BME280;52283;49.292;10.572;2023-02-28T03:41:04;97190.84;;;-4.10;100.00
65614;BME280;52283;49.292;10.572;2023-02-28T03:43:38;97190.06;;;-4.07;100.00
65614;BME280;52283;49.292;10.572;2023-02-28T03:46:10;97190.81;;;-4.32;100.00
65614;BME280;52283;49.292;10.572;2023-02-28T03:48:40;97195.47;;;-4.46;100.00
65614;BME280;52283;49.292;10.572;2023-02-28T03:51:15;97193.91;;;-4.51;100.00
65614;BME280;52283;49.292;10.572;2023-02-28T03:53:45;97203.69;;;-4.28;100.00
65614;BME280;52283;49.292;10.572;2023-02-28T03:56:16;97195.47;;;-4.50;100.00
65614;BME280;52283;49.292;10.572;2023-02-28T03:58:47;97196.25;;;-4.46;100.00
65614;BME280;52283;49.292;10.572;2023-02-28T04:01:19;97187.31;;;-4.21;100.00
65614;BME280;52283;49.292;10.572;2023-02-28T04:03:47;97192.34;;;-4.48;100.00
65614;BME280;52283;49.292;10.572;2023-02-28T04:06:17;97191.59;;;-4.31;100.00
65614;BME280;52283;49.292;10.572;2023-02-28T04:08:44;97195.50;;;-4.36;100.00
65614;BME280;52283;49.292;10.572;2023-02-28T04:11:18;97195.91;;;-4.23;100.00
65614;BME280;52283;49.292;10.572;2023-02-28T04:13:46;97198.19;;;-4.39;100.00
65614;BME280;52283;49.292;10.572;2023-02-28T04:16:13;97200.56;;;-4.31;100.00
65614;BME280;52283;49.292;10.572;2023-02-28T04:18:40;97204.06;;;-4.23;100.00
65614;BME280;52283;49.292;10.572;2023-02-28T04:21:08;97213.03;;;-4.19;100.00
65614;BME280;52283;49.292;10.572;2023-02-28T04:23:36;97199.81;;;-4.13;100.00
65614;BME280;52283;49.292;10.572;2023-02-28T04:26:03;97208.00;;;-4.13;100.00
65614;BME280;52283;49.292;10.572;2023-02-28T04:28:31;97209.53;;;-4.19;100.00
65614;BME280;52283;49.292;10.572;2023-02-28T04:30:58;97207.59;;;-4.26;100.00
65614;BME280;52283;49.292;10.572;2023-02-28T04:33:25;97203.31;;;-4.34;100.00
65614;BME280;52283;49.292;10.572;2023-02-28T04:35:58;97198.63;;;-4.30;100.00
65614;BME280;52283;49.292;10.572;2023-02-28T04:38:24;97199.00;;;-4.24;100.00
65614;BME280;52283;49.292;10.572;2023-02-28T04:40:52;97209.94;;;-4.35;100.00
65614;BME280;52283;49.292;10.572;2023-02-28T04:43:19;97214.19;;;-4.41;100.00
65614;BME280;52283;49.292;10.572;2023-02-28T04:45:45;97212.25;;;-4.30;100.00
65614;BME280;52283;49.292;10.572;2023-02-28T04:48:12;97218.50;;;-4.30;100.00
65614;BME280;52283;49.292;10.572;2023-02-28T04:50:38;97202.13;;;-4.26;100.00
65614;BME280;52283;49.292;10.572;2023-02-28T04:53:05;97198.22;;;-4.36;100.00
65614;BME280;52283;49.292;10.572;2023-02-28T04:55:31;97194.72;;;-4.29;100.00
65614;BME280;52283;49.292;10.572;2023-02-28T04:57:59;97206.41;;;-4.32;100.00
65614;BME280;52283;49.292;10.572;2023-02-28T05:00:25;97196.66;;;-4.22;100.00
65614;BME280;52283;49.292;10.572;2023-02-28T05:02:52;97202.13;;;-4.33;100.00
65614;BME280;52283;49.292;10.572;2023-02-28T05:05:18;97200.56;;;-4.34;100.00
65614;BME280;52283;49.292;10.572;2023-02-28T05:07:45;97213.78;;;-4.54;100.00
65614;BME280;52283;49.292;10.572;2023-02-28T05:10:11;97203.31;;;-4.23;100.00
65614;BME280;52283;49.292;10.572;2023-02-28T05:12:38;97208.38;;;-4.29;100.00
65614;BME280;52283;49.292;10.572;2023-02-28T05:15:09;97203.69;;;-4.18;100.00
65614;BME280;52283;49.292;10.572;2023-02-28T05:17:38;97211.88;;;-4.21;100.00
65614;BME280;52283;49.292;10.572;2023-02-28T05:20:06;97206.41;;;-4.28;100.00
65614;BME280;52283;49.292;10.572;2023-02-28T05:22:33;97205.25;;;-4.20;100.00
65614;BME280;52283;49.292;10.572;2023-02-28T05:24:59;97213.06;;;-4.12;100.00
65614;BME280;52283;49.292;10.572;2023-02-28T05:27:26;97207.97;;;-4.20;100.00
65614;BME280;52283;49.292;10.572;2023-02-28T05:29:53;97210.72;;;-4.27;100.00
65614;BME280;52283;49.292;10.572;2023-02-28T05:32:21;97208.38;;;-4.22;100.00
65614;BME280;52283;49.292;10.572;2023-02-28T05:34:48;97210.72;;;-3.99;100.00
65614;BME280;52283;49.292;10.572;2023-02-28T05:37:15;97208.41;;;-4.11;100.00
65614;BME280;52283;49.292;10.572;2023-02-28T05:39:42;97209.16;;;-4.25;100.00
65614;BME280;52283;49.292;10.572;2023-02-28T05:42:08;97217.34;;;-4.25;100.00
65614;BME280;52283;49.292;10.572;2023-02-28T05:44:35;97211.88;;;-4.21;100.00
65614;BME280;52283;49.292;10.572;2023-02-28T05:47:02;97219.28;;;-4.25;100.00
65614;BME280;52283;49.292;10.572;2023-02-28T05:49:30;97218.50;;;-4.26;100.00
65614;BME280;52283;49.292;10.572;2023-02-28T05:51:56;97218.53;;;-4.15;100.00
65614;BME280;52283;49.292;10.572;2023-02-28T05:54:23;97219.31;;;-4.01;100.00
65614;BME280;52283;49.292;10.572;2023-02-28T05:56:49;97219.72;;;-3.84;100.00
65614;BME280;52283;49.292;10.572;2023-02-28T05:59:15;97212.69;;;-3.89;100.00
65614;BME280;52283;49.292;10.572;2023-02-28T06:01:43;97215.41;;;-3.85;100.00
65614;BME280;52283;49.292;10.572;2023-02-28T06:04:13;97215.81;;;-3.80;100.00
65614;BME280;52283;49.292;10.572;2023-02-28T06:06:44;97223.59;;;-3.96;100.00
65614;BME280;52283;49.292;10.572;2023-02-28T06:09:10;97228.69;;;-3.87;100.00
65614;BME280;52283;49.292;10.572;2023-02-28T06:11:37;97225.16;;;-3.81;100.00
65614;BME280;52283;49.292;10.572;2023-02-28T06:14:04;97225.56;;;-3.79;100.00
65614;BME280;52283;49.292;10.572;2023-02-28T06:16:33;97224.38;;;-3.81;100.00
65614;BME280;52283;49.292;10.572;2023-02-28T06:19:01;97218.53;;;-3.76;100.00
65614;BME280;52283;49.292;10.572;2023-02-28T06:21:28;97219.31;;;-3.76;100.00
65614;BME280;52283;49.292;10.572;2023-02-28T06:23:57;97226.72;;;-3.80;100.00
65614;BME280;52283;49.292;10.572;2023-02-28T06:26:24;97231.03;;;-3.72;100.00
65614;BME280;52283;49.292;10.572;2023-02-28T06:28:50;97232.97;;;-3.76;100.00
65614;BME280;52283;49.292;10.572;2023-02-28T06:31:17;97231.81;;;-3.78;100.00
65614;BME280;52283;49.292;10.572;2023-02-28T06:33:45;97236.50;;;-3.68;100.00
65614;BME280;52283;49.292;10.572;2023-02-28T06:36:13;97233.34;;;-3.56;100.00
65614;BME280;52283;49.292;10.572;2023-02-28T06:38:40;97237.66;;;-3.58;100.00
65614;BME280;52283;49.292;10.572;2023-02-28T06:41:09;97248.56;;;-4.01;100.00
65614;BME280;52283;49.292;10.572;2023-02-28T06:43:38;97241.94;;;-3.75;100.00
65614;BME280;52283;49.292;10.572;2023-02-28T06:46:06;97249.75;;;-3.59;100.00
65614;BME280;52283;49.292;10.572;2023-02-28T06:48:33;97253.28;;;-3.66;100.00
65614;BME280;52283;49.292;10.572;2023-02-28T06:51:04;97245.84;;;-3.76;100.00
65614;BME280;52283;49.292;10.572;2023-02-28T06:53:31;97252.09;;;-3.54;100.00
65614;BME280;52283;49.292;10.572;2023-02-28T06:55:58;97251.69;;;-3.56;100.00
65614;BME280;52283;49.292;10.572;2023-02-28T06:58:25;97247.81;;;-3.62;100.00
65614;BME280;52283;49.292;10.572;2023-02-28T07:00:52;97247.78;;;-3.45;100.00
65614;BME280;52283;49.292;10.572;2023-02-28T07:03:20;97250.94;;;-3.50;100.00
65614;BME280;52283;49.292;10.572;2023-02-28T07:05:47;97235.25;;;-3.21;100.00
65614;BME280;52283;49.292;10.572;2023-02-28T07:08:13;97240.72;;;-3.21;100.00
65614;BME280;52283;49.292;10.572;2023-02-28T07:10:40;97245.44;;;-3.32;100.00
65614;BME280;52283;49.292;10.572;2023-02-28T07:13:08;97245.44;;;-3.32;100.00
65614;BME280;52283;49.292;10.572;2023-02-28T07:15:36;97256.38;;;-3.35;100.00
65614;BME280;52283;49.292;10.572;2023-02-28T07:18:02;97255.22;;;-3.31;100.00
65614;BME280;52283;49.292;10.572;2023-02-28T07:20:29;97251.28;;;-3.23;100.00
65614;BME280;52283;49.292;10.572;2023-02-28T07:22:56;97261.44;;;-3.23;100.00
65614;BME280;52283;49.292;10.572;2023-02-28T07:25:23;97267.31;;;-3.43;100.00
65614;BME280;52283;49.292;10.572;2023-02-28T07:27:50;97263.78;;;-3.40;100.00
65614;BME280;52283;49.292;10.572;2023-02-28T07:30:17;97262.19;;;-3.19;100.00
65614;BME280;52283;49.292;10.572;2023-02-28T07:32:45;97262.59;;;-3.10;100.00
65614;BME280;52283;49.292;10.572;2023-02-28T07:35:12;97262.59;;;-3.10;100.00
65614;BME280;52283;49.292;10.572;2023-02-28T07:37:40;97263.31;;;-2.85;100.00
65614;BME280;52283;49.292;10.572;2023-02-28T07:40:09;97262.47;;;-2.71;100.00
65614;BME280;52283;49.292;10.572;2023-02-28T07:42:38;97272.72;;;-3.03;100.00
65614;BME280;52283;49.292;10.572;2023-02-28T07:45:05;97268.38;;;-2.94;100.00
65614;BME280;52283;49.292;10.572;2023-02-28T07:47:32;97263.66;;;-2.79;100.00
65614;BME280;52283;49.292;10.572;2023-02-28T07:50:00;97280.13;;;-2.97;100.00
65614;BME280;52283;49.292;10.572;2023-02-28T07:52:27;97284.03;;;-2.98;100.00
65614;BME280;52283;49.292;10.572;2023-02-28T07:54:53;97283.25;;;-2.88;100.00
65614;BME280;52283;49.292;10.572;2023-02-28T07:57:20;97284.41;;;-2.89;100.00
65614;BME280;52283;49.292;10.572;2023-02-28T07:59:46;97275.72;;;-2.59;100.00
65614;BME280;52283;49.292;10.572;2023-02-28T08:02:14;97277.25;;;-2.54;100.00
65614;BME280;52283;49.292;10.572;2023-02-28T08:04:40;97276.06;;;-2.46;100.00
65614;BME280;52283;49.292;10.572;2023-02-28T08:07:08;97278.72;;;-2.32;100.00
65614;BME280;52283;49.292;10.572;2023-02-28T08:09:38;97271.31;;;-1.72;100.00
65614;BME280;52283;49.292;10.572;2023-02-28T08:12:05;97264.34;;;-1.32;100.00
65614;BME280;52283;49.292;10.572;2023-02-28T08:14:31;97262.38;;;-1.32;100.00
65614;BME280;52283;49.292;10.572;2023-02-28T08:17:01;97268.75;;;-1.42;100.00
65614;BME280;52283;49.292;10.572;2023-02-28T08:19:28;97262.19;;;-1.55;100.00
65614;BME280;52283;49.292;10.572;2023-02-28T08:21:54;97263.78;;;-1.13;100.00
65614;BME280;52283;49.292;10.572;2023-02-28T08:24:22;97263.34;;;-0.36;100.00
65614;BME280;52283;49.292;10.572;2023-02-28T08:26:49;97266.28;;;-0.54;97.49
65614;BME280;52283;49.292;10.572;2023-02-28T08:29:15;97261.34;;;-1.04;95.13
65614;BME280;52283;49.292;10.572;2023-02-28T08:31:42;97250.94;;;-0.21;93.84
65614;BME280;52283;49.292;10.572;2023-02-28T08:34:10;97260.97;;;-0.68;94.55
65614;BME280;52283;49.292;10.572;2023-02-28T08:36:38;97248.63;;;-0.53;90.50
65614;BME280;52283;49.292;10.572;2023-02-28T08:39:05;97253.59;;;-0.44;91.17
65614;BME280;52283;49.292;10.572;2023-02-28T08:41:33;97256.97;;;-0.64;90.00
65614;BME280;52283;49.292;10.572;2023-02-28T08:43:59;97250.28;;;-0.28;89.89
65614;BME280;52283;49.292;10.572;2023-02-28T08:46:26;97256.41;;;-0.17;87.26
65614;BME280;52283;49.292;10.572;2023-02-28T08:48:53;97250.16;;;-0.21;89.05
65614;BME280;52283;49.292;10.572;2023-02-28T08:51:21;97258.56;;;-0.32;86.54
65614;BME280;52283;49.292;10.572;2023-02-28T08:53:52;97248.97;;;-0.17;84.47
65614;BME280;52283;49.292;10.572;2023-02-28T08:56:19;97250.22;;;0.06;83.49
65614;BME280;52283;49.292;10.572;2023-02-28T08:58:48;97248.25;;;0.06;83.63
65614;BME280;52283;49.292;10.572;2023-02-28T09:01:16;97239.34;;;0.49;80.87
65614;BME280;52283;49.292;10.572;2023-02-28T09:03:44;97235.34;;;0.53;79.80
65614;BME280;52283;49.292;10.572;2023-02-28T09:06:12;97241.41;;;0.41;80.01
65614;BME280;52283;49.292;10.572;2023-02-28T09:08:39;97235.19;;;0.60;80.07
65614;BME280;52283;49.292;10.572;2023-02-28T09:11:06;97228.84;;;1.10;78.11
65614;BME280;52283;49.292;10.572;2023-02-28T09:13:33;97216.97;;;1.13;76.89
65614;BME280;52283;49.292;10.572;2023-02-28T09:16:03;97231.31;;;0.81;77.81
65614;BME280;52283;49.292;10.572;2023-02-28T09:18:30;97221.47;;;1.04;77.52
65614;BME280;52283;49.292;10.572;2023-02-28T09:20:56;97219.47;;;1.47;75.36
65614;BME280;52283;49.292;10.572;2023-02-28T09:23:24;97226.22;;;0.80;76.07
65614;BME280;52283;49.292;10.572;2023-02-28T09:25:52;97224.97;;;1.47;76.28
65614;BME280;52283;49.292;10.572;2023-02-28T09:28:20;97216.84;;;2.29;73.63
65614;BME280;52283;49.292;10.572;2023-02-28T09:30:48;97225.63;;;0.92;73.84
65614;BME280;52283;49.292;10.572;2023-02-28T09:33:17;97219.91;;;0.59;72.87
65614;BME280;52283;49.292;10.572;2023-02-28T09:35:45;97207.91;;;1.72;71.95
65614;BME280;52283;49.292;10.572;2023-02-28T09:38:12;97210.75;;;1.69;71.54
65614;BME280;52283;49.292;10.572;2023-02-28T09:40:47;97210.88;;;1.62;70.48
65614;BME280;52283;49.292;10.572;2023-02-28T09:43:15;97223.81;;;1.45;72.00
65614;BME280;52283;49.292;10.572;2023-02-28T09:45:46;97217.75;;;1.53;72.24
65614;BME280;52283;49.292;10.572;2023-02-28T09:48:17;97224.53;;;1.85;70.78
65614;BME280;52283;49.292;10.572;2023-02-28T09:50:50;97226.44;;;1.52;71.32
65614;BME280;52283;49.292;10.572;2023-02-28T09:53:21;97227.19;;;2.08;69.84
65614;BME280;52283;49.292;10.572;2023-02-28T09:55:50;97226.09;;;1.86;70.20
65614;BME280;52283;49.292;10.572;2023-02-28T09:58:20;97206.59;;;1.97;68.65
65614;BME280;52283;49.292;10.572;2023-02-28T10:00:56;97210.06;;;1.81;69.16
65614;BME280;52283;49.292;10.572;2023-02-28T10:03:30;97216.72;;;2.36;67.60
65614;BME280;52283;49.292;10.572;2023-02-28T10:06:03;97212.25;;;1.53;69.11
65614;BME280;52283;49.292;10.572;2023-02-28T10:08:37;97216.59;;;1.71;68.39
65614;BME280;52283;49.292;10.572;2023-02-28T10:11:09;97209.19;;;2.20;67.92
65614;BME280;52283;49.292;10.572;2023-02-28T10:13:42;97216.34;;;2.18;68.20
65614;BME280;52283;49.292;10.572;2023-02-28T10:16:14;97215.22;;;2.48;66.86
65614;BME280;52283;49.292;10.572;2023-02-28T10:18:47;97223.41;;;2.19;67.68
65614;BME280;52283;49.292;10.572;2023-02-28T10:21:17;97217.91;;;2.35;65.76
65614;BME280;52283;49.292;10.572;2023-02-28T10:23:45;97213.50;;;1.69;66.39
65614;BME280;52283;49.292;10.572;2023-02-28T10:26:16;97224.44;;;2.25;66.45
65614;BME280;52283;49.292;10.572;2023-02-28T10:28:43;97218.84;;;2.77;64.83
65614;BME280;52283;49.292;10.572;2023-02-28T10:31:14;97223.59;;;2.77;65.06
65614;BME280;52283;49.292;10.572;2023-02-28T10:33:44;97202.94;;;2.97;63.20
65614;BME280;52283;49.292;10.572;2023-02-28T10:36:14;97204.31;;;3.47;62.80
65614;BME280;52283;49.292;10.572;2023-02-28T10:38:43;97204.63;;;3.08;62.56
65614;BME280;52283;49.292;10.572;2023-02-28T10:41:12;97210.22;;;3.20;62.90
65614;BME280;52283;49.292;10.572;2023-02-28T10:43:40;97208.00;;;3.15;63.10
65614;BME280;52283;49.292;10.572;2023-02-28T10:46:13;97211.31;;;3.23;61.90
65614;BME280;52283;49.292;10.572;2023-02-28T10:49:02;97205.91;;;2.74;62.02
65614;BME280;52283;49.292;10.572;2023-02-28T10:51:36;97220.91;;;2.24;64.51
65614;BME280;52283;49.292;10.572;2023-02-28T10:54:04;97219.88;;;3.12;63.91
65614;BME280;52283;49.292;10.572;2023-02-28T10:56:31;97202.84;;;3.01;62.58
65614;BME280;52283;49.292;10.572;2023-02-28T10:58:59;97194.94;;;2.87;61.13
65614;BME280;52283;49.292;10.572;2023-02-28T11:01:37;97207.28;;;3.11;61.99
65614;BME280;52283;49.292;10.572;2023-02-28T11:04:19;97195.31;;;3.59;60.24
65614;BME280;52283;49.292;10.572;2023-02-28T11:06:47;97205.19;;;3.86;59.82
65614;BME280;52283;49.292;10.572;2023-02-28T11:09:20;97193.16;;;3.38;58.83
65614;BME280;52283;49.292;10.572;2023-02-28T11:11:49;97193.34;;;3.02;60.01
65614;BME280;52283;49.292;10.572;2023-02-28T11:14:20;97204.72;;;2.75;60.78
65614;BME280;52283;49.292;10.572;2023-02-28T11:16:48;97215.31;;;2.11;63.15
65614;BME280;52283;49.292;10.572;2023-02-28T11:19:21;97221.53;;;2.64;62.04
65614;BME280;52283;49.292;10.572;2023-02-28T11:21:53;97215.56;;;2.66;61.14
65614;BME280;52283;49.292;10.572;2023-02-28T11:24:23;97210.69;;;3.02;60.80
65614;BME280;52283;49.292;10.572;2023-02-28T11:26:51;97206.53;;;3.40;60.93
65614;BME280;52283;49.292;10.572;2023-02-28T11:29:20;97212.56;;;2.28;60.18
65614;BME280;52283;49.292;10.572;2023-02-28T11:32:16;97207.22;;;2.21;61.20
65614;BME280;52283;49.292;10.572;2023-02-28T11:34:45;97204.25;;;2.93;60.09
65614;BME280;52283;49.292;10.572;2023-02-28T11:37:15;97197.19;;;2.75;58.80
65614;BME280;52283;49.292;10.572;2023-02-28T11:39:43;97189.75;;;2.89;58.51
65614;BME280;52283;49.292;10.572;2023-02-28T11:42:23;97192.03;;;4.28;56.82
65614;BME280;52283;49.292;10.572;2023-02-28T11:45:05;97194.91;;;4.24;56.75
65614;BME280;52283;49.292;10.572;2023-02-28T11:47:43;97179.97;;;3.84;56.39
65614;BME280;52283;49.292;10.572;2023-02-28T11:50:21;97190.50;;;3.47;58.14
65614;BME280;52283;49.292;10.572;2023-02-28T11:52:53;97186.03;;;3.91;57.55
65614;BME280;52283;49.292;10.572;2023-02-28T11:55:24;97170.16;;;4.55;56.52
65614;BME280;52283;49.292;10.572;2023-02-28T11:58:14;97186.81;;;3.79;57.98
65614;BME280;52283;49.292;10.572;2023-02-28T12:00:57;97187.28;;;3.07;58.54
65614;BME280;52283;49.292;10.572;2023-02-28T12:03:33;97179.63;;;3.94;57.46
65614;BME280;52283;49.292;10.572;2023-02-28T12:06:17;97189.69;;;3.88;55.98
65614;BME280;52283;49.292;10.572;2023-02-28T12:08:51;97184.06;;;4.17;56.37
65614;BME280;52283;49.292;10.572;2023-02-28T12:11:29;97184.53;;;3.49;55.85
65614;BME280;52283;49.292;10.572;2023-02-28T12:14:14;97185.41;;;3.04;56.96
65614;BME280;52283;49.292;10.572;2023-02-28T12:16:49;97196.59;;;2.68;57.80
65614;BME280;52283;49.292;10.572;2023-02-28T12:19:21;97200.63;;;2.96;58.12
65614;BME280;52283;49.292;10.572;2023-02-28T12:22:09;97184.44;;;3.52;56.25
65614;BME280;52283;49.292;10.572;2023-02-28T12:24:47;97173.00;;;2.96;56.65
65614;BME280;52283;49.292;10.572;2023-02-28T12:27:18;97185.69;;;3.64;58.50
65614;BME280;52283;49.292;10.572;2023-02-28T12:29:50;97176.97;;;4.16;55.52
65614;BME280;52283;49.292;10.572;2023-02-28T12:32:21;97168.34;;;4.27;54.83
65614;BME280;52283;49.292;10.572;2023-02-28T12:34:52;97167.00;;;3.68;55.84
65614;BME280;52283;49.292;10.572;2023-02-28T12:37:36;97170.66;;;3.90;54.84
65614;BME280;52283;49.292;10.572;2023-02-28T12:40:11;97172.75;;;4.37;55.59
65614;BME280;52283;49.292;10.572;2023-02-28T12:42:41;97160.94;;;4.71;53.31
65614;BME280;52283;49.292;10.572;2023-02-28T12:45:12;97160.38;;;4.42;53.68
65614;BME280;52283;49.292;10.572;2023-02-28T12:47:42;97145.44;;;4.74;53.44
65614;BME280;52283;49.292;10.572;2023-02-28T12:50:10;97138.63;;;4.87;53.10
65614;BME280;52283;49.292;10.572;2023-02-28T12:52:41;97154.97;;;4.13;54.47
65614;BME280;52283;49.292;10.572;2023-02-28T12:55:16;97154.34;;;4.56;54.32
65614;BME280;52283;49.292;10.572;2023-02-28T12:57:52;97159.28;;;4.01;55.39
65614;BME280;52283;49.292;10.572;2023-02-28T13:00:25;97156.53;;;3.76;54.82
65614;BME280;52283;49.292;10.572;2023-02-28T13:03:18;97172.16;;;3.53;55.50
65614;BME280;52283;49.292;10.572;2023-02-28T13:06:20;97165.25;;;4.38;56.43
65614;BME280;52283;49.292;10.572;2023-02-28T13:09:09;97153.53;;;4.68;54.38